Portada
METAR-TAF:

METAR-TAF

Aeropuertos :

Vitória, Espírito Santo, Brasil

Aeropuerto de Eurico de Aguiar Salles

latitud: 20-16S, longitud: 040-17W, altitud: 4 m

Observación

El informe se hizo hace 1 hora y 9 minutos, a las 13:00 UTC
Viento 11 kt del sur-suroeste
Temperatura 28°C
Humedad 62%
Presión 1018 hPa
Visibilidad 10 km o más
Nubes dispersas a una altura de 3000 ft
Cielo nuboso a una altura de 9000 ft

METAR: SBVT 231300Z 20011KT 9999 SCT030 BKN090 28/20 Q1018

Hora: 11:09 (14:09 UTC)

Pronóstico

El informe se hizo hace 4 horas y 9 minutos, a las 10:00 UTC
Pronóstico válido del 23 a las 12 UTC al 24 a las 12 UTC
Viento 5 kt del sur
Visibilidad 10 km o más
Nubes dispersas a una altura de 2000 ft

TAF: SBVT 231000Z 2312/2412 18005KT 9999 SCT020 TX31/2315Z TN23/2408Z RMK PEI

Observaciones y pronósticos meteorológicos de más de 4000 aeropuertos (mensajes METAR y TAF).

Los puntos amarillos y rojos representan las estaciones disponibles.

Ponga el ratón en el punto deseado para ver el nombre de la estación.

Haga clic para ver las observaciones y los pronósticos meteorológicos.

Para cambiar el mapa : haga clic en los botones verdes con una cruz de color negro para hacer un zoom, en el botón verde con un guión para alejar o en las flechas verdes para mapas adyacentes.


METAR-TAF: